sensor_id;sensor_type;location;lat;lon;timestamp;P1;durP1;ratioP1;P2;durP2;ratioP2
50337;SDS011;46221;51.178;5.900;2023-11-19T00:02:09;2.50;;;1.00;;
50337;SDS011;46221;51.178;5.900;2023-11-19T00:04:36;1.98;;;0.60;;
50337;SDS011;46221;51.178;5.900;2023-11-19T00:07:03;2.30;;;0.50;;
50337;SDS011;46221;51.178;5.900;2023-11-19T00:09:31;0.95;;;0.50;;
50337;SDS011;46221;51.178;5.900;2023-11-19T00:11:57;2.70;;;0.80;;
50337;SDS011;46221;51.178;5.900;2023-11-19T00:14:26;2.60;;;0.80;;
50337;SDS011;46221;51.178;5.900;2023-11-19T00:16:52;1.48;;;0.50;;
50337;SDS011;46221;51.178;5.900;2023-11-19T00:19:19;1.75;;;0.60;;
50337;SDS011;46221;51.178;5.900;2023-11-19T00:21:46;1.55;;;0.55;;
50337;SDS011;46221;51.178;5.900;2023-11-19T00:24:12;2.50;;;0.70;;
50337;SDS011;46221;51.178;5.900;2023-11-19T00:26:39;1.83;;;0.60;;
50337;SDS011;46221;51.178;5.900;2023-11-19T00:29:05;1.85;;;0.65;;
50337;SDS011;46221;51.178;5.900;2023-11-19T00:31:32;5.05;;;0.82;;
50337;SDS011;46221;51.178;5.900;2023-11-19T00:33:59;1.75;;;0.68;;
50337;SDS011;46221;51.178;5.900;2023-11-19T00:36:25;1.17;;;0.60;;
50337;SDS011;46221;51.178;5.900;2023-11-19T00:38:52;2.00;;;0.73;;
50337;SDS011;46221;51.178;5.900;2023-11-19T00:41:19;1.77;;;0.70;;
50337;SDS011;46221;51.178;5.900;2023-11-19T00:43:45;1.42;;;0.70;;
50337;SDS011;46221;51.178;5.900;2023-11-19T00:46:11;1.85;;;0.80;;
50337;SDS011;46221;51.178;5.900;2023-11-19T00:48:38;1.15;;;0.60;;
50337;SDS011;46221;51.178;5.900;2023-11-19T00:51:05;0.98;;;0.47;;
50337;SDS011;46221;51.178;5.900;2023-11-19T00:53:31;1.30;;;0.50;;
50337;SDS011;46221;51.178;5.900;2023-11-19T00:55:58;1.25;;;0.52;;
50337;SDS011;46221;51.178;5.900;2023-11-19T00:58:24;0.95;;;0.57;;
50337;SDS011;46221;51.178;5.900;2023-11-19T01:00:51;1.65;;;0.60;;
50337;SDS011;46221;51.178;5.900;2023-11-19T01:03:17;0.88;;;0.50;;
50337;SDS011;46221;51.178;5.900;2023-11-19T01:05:44;1.98;;;0.57;;
50337;SDS011;46221;51.178;5.900;2023-11-19T01:08:12;1.45;;;0.50;;
50337;SDS011;46221;51.178;5.900;2023-11-19T01:10:39;0.90;;;0.50;;
50337;SDS011;46221;51.178;5.900;2023-11-19T01:13:05;1.40;;;0.50;;
50337;SDS011;46221;51.178;5.900;2023-11-19T01:15:32;2.38;;;0.88;;
50337;SDS011;46221;51.178;5.900;2023-11-19T01:17:58;1.92;;;0.70;;
50337;SDS011;46221;51.178;5.900;2023-11-19T01:20:25;1.80;;;0.63;;
50337;SDS011;46221;51.178;5.900;2023-11-19T01:22:52;1.13;;;0.65;;
50337;SDS011;46221;51.178;5.900;2023-11-19T01:25:19;1.33;;;0.50;;
50337;SDS011;46221;51.178;5.900;2023-11-19T01:27:46;2.00;;;0.80;;
50337;SDS011;46221;51.178;5.900;2023-11-19T01:30:13;3.15;;;0.75;;
50337;SDS011;46221;51.178;5.900;2023-11-19T01:32:40;3.05;;;0.82;;
50337;SDS011;46221;51.178;5.900;2023-11-19T01:35:08;1.02;;;0.40;;
50337;SDS011;46221;51.178;5.900;2023-11-19T01:37:35;1.55;;;0.60;;
50337;SDS011;46221;51.178;5.900;2023-11-19T01:40:02;4.68;;;0.80;;
50337;SDS011;46221;51.178;5.900;2023-11-19T01:42:37;2.80;;;0.70;;
50337;SDS011;46221;51.178;5.900;2023-11-19T01:45:04;3.10;;;0.73;;
50337;SDS011;46221;51.178;5.900;2023-11-19T01:47:33;2.83;;;0.80;;
50337;SDS011;46221;51.178;5.900;2023-11-19T01:50:01;1.73;;;0.60;;
50337;SDS011;46221;51.178;5.900;2023-11-19T01:52:28;1.58;;;0.80;;
50337;SDS011;46221;51.178;5.900;2023-11-19T01:54:55;1.65;;;0.63;;
50337;SDS011;46221;51.178;5.900;2023-11-19T01:57:22;2.80;;;0.70;;
50337;SDS011;46221;51.178;5.900;2023-11-19T01:59:52;2.25;;;0.80;;
50337;SDS011;46221;51.178;5.900;2023-11-19T02:02:18;1.67;;;0.50;;
50337;SDS011;46221;51.178;5.900;2023-11-19T02:04:49;3.17;;;0.55;;
50337;SDS011;46221;51.178;5.900;2023-11-19T02:07:15;1.48;;;0.52;;
50337;SDS011;46221;51.178;5.900;2023-11-19T02:09:43;1.65;;;0.70;;
50337;SDS011;46221;51.178;5.900;2023-11-19T02:12:10;1.52;;;0.60;;
50337;SDS011;46221;51.178;5.900;2023-11-19T02:14:39;1.42;;;0.50;;
50337;SDS011;46221;51.178;5.900;2023-11-19T02:17:06;5.05;;;1.65;;
50337;SDS011;46221;51.178;5.900;2023-11-19T02:19:32;2.80;;;0.90;;
50337;SDS011;46221;51.178;5.900;2023-11-19T02:21:59;3.30;;;0.93;;
50337;SDS011;46221;51.178;5.900;2023-11-19T02:24:27;2.85;;;1.00;;
50337;SDS011;46221;51.178;5.900;2023-11-19T02:27:00;3.80;;;1.30;;
50337;SDS011;46221;51.178;5.900;2023-11-19T02:29:28;2.88;;;0.93;;
50337;SDS011;46221;51.178;5.900;2023-11-19T02:31:54;2.67;;;0.88;;
50337;SDS011;46221;51.178;5.900;2023-11-19T02:34:22;3.80;;;1.05;;
50337;SDS011;46221;51.178;5.900;2023-11-19T02:36:49;3.55;;;1.00;;
50337;SDS011;46221;51.178;5.900;2023-11-19T02:39:16;2.75;;;0.90;;
50337;SDS011;46221;51.178;5.900;2023-11-19T02:41:47;2.15;;;0.77;;
50337;SDS011;46221;51.178;5.900;2023-11-19T02:44:17;2.30;;;0.80;;
50337;SDS011;46221;51.178;5.900;2023-11-19T02:46:43;2.55;;;0.80;;
50337;SDS011;46221;51.178;5.900;2023-11-19T02:49:09;3.67;;;1.10;;
50337;SDS011;46221;51.178;5.900;2023-11-19T02:51:36;2.88;;;1.25;;
50337;SDS011;46221;51.178;5.900;2023-11-19T02:54:02;4.07;;;0.93;;
50337;SDS011;46221;51.178;5.900;2023-11-19T02:56:29;4.82;;;1.20;;
50337;SDS011;46221;51.178;5.900;2023-11-19T02:59:00;2.65;;;0.85;;
50337;SDS011;46221;51.178;5.900;2023-11-19T03:01:34;4.68;;;1.10;;
50337;SDS011;46221;51.178;5.900;2023-11-19T03:04:02;3.88;;;1.00;;
50337;SDS011;46221;51.178;5.900;2023-11-19T03:06:29;5.30;;;1.20;;
50337;SDS011;46221;51.178;5.900;2023-11-19T03:08:56;5.75;;;1.33;;
50337;SDS011;46221;51.178;5.900;2023-11-19T03:11:22;3.28;;;1.05;;
50337;SDS011;46221;51.178;5.900;2023-11-19T03:13:49;4.88;;;1.23;;
50337;SDS011;46221;51.178;5.900;2023-11-19T03:16:15;5.88;;;1.00;;
50337;SDS011;46221;51.178;5.900;2023-11-19T03:18:43;3.83;;;1.13;;
50337;SDS011;46221;51.178;5.900;2023-11-19T03:21:09;3.20;;;0.80;;
50337;SDS011;46221;51.178;5.900;2023-11-19T03:23:36;3.88;;;0.90;;
50337;SDS011;46221;51.178;5.900;2023-11-19T03:26:02;4.35;;;1.08;;
50337;SDS011;46221;51.178;5.900;2023-11-19T03:28:31;5.25;;;1.05;;
50337;SDS011;46221;51.178;5.900;2023-11-19T03:30:57;3.70;;;1.00;;
50337;SDS011;46221;51.178;5.900;2023-11-19T03:33:24;6.22;;;1.30;;
50337;SDS011;46221;51.178;5.900;2023-11-19T03:35:52;5.85;;;1.23;;
50337;SDS011;46221;51.178;5.900;2023-11-19T03:38:18;4.47;;;1.08;;
50337;SDS011;46221;51.178;5.900;2023-11-19T03:40:44;3.10;;;1.05;;
50337;SDS011;46221;51.178;5.900;2023-11-19T03:43:11;6.25;;;1.50;;
50337;SDS011;46221;51.178;5.900;2023-11-19T03:45:39;4.45;;;1.40;;
50337;SDS011;46221;51.178;5.900;2023-11-19T03:48:05;5.00;;;1.38;;
50337;SDS011;46221;51.178;5.900;2023-11-19T03:50:32;5.43;;;1.27;;
50337;SDS011;46221;51.178;5.900;2023-11-19T03:52:59;6.75;;;1.30;;
50337;SDS011;46221;51.178;5.900;2023-11-19T03:55:25;5.68;;;1.50;;
50337;SDS011;46221;51.178;5.900;2023-11-19T03:57:51;5.25;;;1.20;;
50337;SDS011;46221;51.178;5.900;2023-11-19T04:00:18;3.70;;;1.25;;
50337;SDS011;46221;51.178;5.900;2023-11-19T04:02:47;5.30;;;1.27;;
50337;SDS011;46221;51.178;5.900;2023-11-19T04:05:13;4.75;;;1.33;;
50337;SDS011;46221;51.178;5.900;2023-11-19T04:07:40;4.97;;;1.45;;
50337;SDS011;46221;51.178;5.900;2023-11-19T04:10:06;6.03;;;1.42;;
50337;SDS011;46221;51.178;5.900;2023-11-19T04:12:33;8.38;;;1.73;;
50337;SDS011;46221;51.178;5.900;2023-11-19T04:14:59;5.57;;;1.42;;
50337;SDS011;46221;51.178;5.900;2023-11-19T04:17:27;7.10;;;1.50;;
50337;SDS011;46221;51.178;5.900;2023-11-19T04:19:54;4.93;;;1.20;;
50337;SDS011;46221;51.178;5.900;2023-11-19T04:22:21;6.03;;;1.50;;
50337;SDS011;46221;51.178;5.900;2023-11-19T04:24:48;4.65;;;1.30;;
50337;SDS011;46221;51.178;5.900;2023-11-19T04:27:14;6.35;;;1.25;;
50337;SDS011;46221;51.178;5.900;2023-11-19T04:29:41;5.05;;;1.20;;
50337;SDS011;46221;51.178;5.900;2023-11-19T04:32:07;4.18;;;1.15;;
50337;SDS011;46221;51.178;5.900;2023-11-19T04:34:34;4.32;;;1.50;;
50337;SDS011;46221;51.178;5.900;2023-11-19T04:37:00;5.85;;;1.60;;
50337;SDS011;46221;51.178;5.900;2023-11-19T04:39:33;5.70;;;1.90;;
50337;SDS011;46221;51.178;5.900;2023-11-19T04:41:59;4.25;;;1.23;;
50337;SDS011;46221;51.178;5.900;2023-11-19T04:44:26;6.22;;;1.30;;
50337;SDS011;46221;51.178;5.900;2023-11-19T04:46:52;5.75;;;1.35;;
50337;SDS011;46221;51.178;5.900;2023-11-19T04:49:19;6.15;;;1.58;;
50337;SDS011;46221;51.178;5.900;2023-11-19T04:51:45;5.22;;;1.40;;
50337;SDS011;46221;51.178;5.900;2023-11-19T04:54:13;4.47;;;1.33;;
50337;SDS011;46221;51.178;5.900;2023-11-19T04:56:40;5.45;;;1.48;;
50337;SDS011;46221;51.178;5.900;2023-11-19T04:59:06;7.85;;;2.00;;
50337;SDS011;46221;51.178;5.900;2023-11-19T05:01:33;5.30;;;1.17;;
50337;SDS011;46221;51.178;5.900;2023-11-19T05:03:59;5.97;;;1.63;;
50337;SDS011;46221;51.178;5.900;2023-11-19T05:06:27;6.90;;;1.67;;
50337;SDS011;46221;51.178;5.900;2023-11-19T05:08:54;8.15;;;1.85;;
50337;SDS011;46221;51.178;5.900;2023-11-19T05:11:21;5.72;;;1.40;;
50337;SDS011;46221;51.178;5.900;2023-11-19T05:13:47;3.70;;;1.02;;
50337;SDS011;46221;51.178;5.900;2023-11-19T05:16:14;6.75;;;1.30;;
50337;SDS011;46221;51.178;5.900;2023-11-19T05:18:41;6.53;;;1.38;;
50337;SDS011;46221;51.178;5.900;2023-11-19T05:21:09;6.88;;;1.17;;
50337;SDS011;46221;51.178;5.900;2023-11-19T05:23:35;5.65;;;1.48;;
50337;SDS011;46221;51.178;5.900;2023-11-19T05:26:02;5.35;;;1.30;;
50337;SDS011;46221;51.178;5.900;2023-11-19T05:28:32;6.00;;;1.80;;
50337;SDS011;46221;51.178;5.900;2023-11-19T05:30:59;12.52;;;1.75;;
50337;SDS011;46221;51.178;5.900;2023-11-19T05:33:25;6.10;;;1.52;;
50337;SDS011;46221;51.178;5.900;2023-11-19T05:35:52;5.78;;;1.63;;
50337;SDS011;46221;51.178;5.900;2023-11-19T05:38:18;6.43;;;1.75;;
50337;SDS011;46221;51.178;5.900;2023-11-19T05:40:45;6.45;;;2.08;;
50337;SDS011;46221;51.178;5.900;2023-11-19T05:43:14;6.47;;;2.05;;
50337;SDS011;46221;51.178;5.900;2023-11-19T05:45:43;10.88;;;2.45;;
50337;SDS011;46221;51.178;5.900;2023-11-19T05:48:09;9.80;;;2.55;;
50337;SDS011;46221;51.178;5.900;2023-11-19T05:50:36;7.28;;;2.10;;
50337;SDS011;46221;51.178;5.900;2023-11-19T05:53:02;7.20;;;2.20;;
50337;SDS011;46221;51.178;5.900;2023-11-19T05:55:34;7.15;;;1.63;;
50337;SDS011;46221;51.178;5.900;2023-11-19T05:58:02;6.88;;;1.45;;
50337;SDS011;46221;51.178;5.900;2023-11-19T06:00:30;6.10;;;1.45;;
50337;SDS011;46221;51.178;5.900;2023-11-19T06:02:56;10.10;;;2.05;;
50337;SDS011;46221;51.178;5.900;2023-11-19T06:05:23;7.72;;;2.20;;
50337;SDS011;46221;51.178;5.900;2023-11-19T06:07:49;9.68;;;1.80;;
50337;SDS011;46221;51.178;5.900;2023-11-19T06:10:17;7.00;;;1.75;;
50337;SDS011;46221;51.178;5.900;2023-11-19T06:12:44;8.77;;;1.98;;
50337;SDS011;46221;51.178;5.900;2023-11-19T06:15:12;7.00;;;1.73;;
50337;SDS011;46221;51.178;5.900;2023-11-19T06:17:39;8.13;;;2.13;;
50337;SDS011;46221;51.178;5.900;2023-11-19T06:20:06;6.78;;;1.70;;
50337;SDS011;46221;51.178;5.900;2023-11-19T06:22:34;8.30;;;1.85;;
50337;SDS011;46221;51.178;5.900;2023-11-19T06:25:01;10.38;;;1.95;;
50337;SDS011;46221;51.178;5.900;2023-11-19T06:27:27;8.73;;;1.90;;
50337;SDS011;46221;51.178;5.900;2023-11-19T06:29:54;8.13;;;1.95;;
50337;SDS011;46221;51.178;5.900;2023-11-19T06:32:21;9.35;;;2.05;;
50337;SDS011;46221;51.178;5.900;2023-11-19T06:34:48;9.43;;;1.70;;
50337;SDS011;46221;51.178;5.900;2023-11-19T06:37:14;5.55;;;1.80;;
50337;SDS011;46221;51.178;5.900;2023-11-19T06:39:41;8.82;;;1.80;;
50337;SDS011;46221;51.178;5.900;2023-11-19T06:42:07;8.77;;;1.90;;
50337;SDS011;46221;51.178;5.900;2023-11-19T06:44:33;5.80;;;2.00;;
50337;SDS011;46221;51.178;5.900;2023-11-19T06:47:00;8.77;;;1.95;;
50337;SDS011;46221;51.178;5.900;2023-11-19T06:49:27;6.50;;;1.70;;
50337;SDS011;46221;51.178;5.900;2023-11-19T06:51:53;7.68;;;2.17;;
50337;SDS011;46221;51.178;5.900;2023-11-19T06:54:19;10.13;;;2.40;;
50337;SDS011;46221;51.178;5.900;2023-11-19T06:56:46;12.93;;;2.20;;
50337;SDS011;46221;51.178;5.900;2023-11-19T06:59:13;9.45;;;2.60;;
50337;SDS011;46221;51.178;5.900;2023-11-19T07:01:40;7.53;;;2.00;;
50337;SDS011;46221;51.178;5.900;2023-11-19T07:04:13;9.57;;;2.00;;
50337;SDS011;46221;51.178;5.900;2023-11-19T07:06:39;7.80;;;1.75;;
50337;SDS011;46221;51.178;5.900;2023-11-19T07:09:09;8.73;;;2.10;;
50337;SDS011;46221;51.178;5.900;2023-11-19T07:11:37;9.30;;;2.63;;
50337;SDS011;46221;51.178;5.900;2023-11-19T07:14:05;11.40;;;2.13;;
50337;SDS011;46221;51.178;5.900;2023-11-19T07:16:32;10.25;;;2.03;;
50337;SDS011;46221;51.178;5.900;2023-11-19T07:19:01;9.38;;;2.25;;
50337;SDS011;46221;51.178;5.900;2023-11-19T07:21:27;11.32;;;3.13;;
50337;SDS011;46221;51.178;5.900;2023-11-19T07:23:56;7.80;;;2.13;;
50337;SDS011;46221;51.178;5.900;2023-11-19T07:26:22;9.55;;;2.33;;
50337;SDS011;46221;51.178;5.900;2023-11-19T07:28:49;11.63;;;2.47;;
50337;SDS011;46221;51.178;5.900;2023-11-19T07:31:16;10.52;;;2.03;;
50337;SDS011;46221;51.178;5.900;2023-11-19T07:33:42;10.50;;;3.08;;
50337;SDS011;46221;51.178;5.900;2023-11-19T07:36:09;10.80;;;2.58;;
50337;SDS011;46221;51.178;5.900;2023-11-19T07:38:36;8.75;;;2.00;;
50337;SDS011;46221;51.178;5.900;2023-11-19T07:41:02;10.02;;;2.22;;
50337;SDS011;46221;51.178;5.900;2023-11-19T07:43:29;11.30;;;2.90;;
50337;SDS011;46221;51.178;5.900;2023-11-19T07:45:56;8.75;;;2.80;;
50337;SDS011;46221;51.178;5.900;2023-11-19T07:48:22;12.05;;;2.47;;
50337;SDS011;46221;51.178;5.900;2023-11-19T07:50:49;9.77;;;3.15;;
50337;SDS011;46221;51.178;5.900;2023-11-19T07:53:19;11.88;;;2.70;;
50337;SDS011;46221;51.178;5.900;2023-11-19T07:55:46;10.60;;;2.22;;
50337;SDS011;46221;51.178;5.900;2023-11-19T07:58:12;10.80;;;2.20;;
50337;SDS011;46221;51.178;5.900;2023-11-19T08:00:38;10.38;;;2.65;;
50337;SDS011;46221;51.178;5.900;2023-11-19T08:03:06;8.63;;;2.67;;
50337;SDS011;46221;51.178;5.900;2023-11-19T08:05:33;7.47;;;2.50;;
50337;SDS011;46221;51.178;5.900;2023-11-19T08:07:59;8.52;;;2.10;;
50337;SDS011;46221;51.178;5.900;2023-11-19T08:10:26;11.35;;;2.53;;
50337;SDS011;46221;51.178;5.900;2023-11-19T08:12:53;7.70;;;2.20;;
50337;SDS011;46221;51.178;5.900;2023-11-19T08:15:19;7.53;;;2.00;;
50337;SDS011;46221;51.178;5.900;2023-11-19T08:17:48;9.43;;;2.10;;
50337;SDS011;46221;51.178;5.900;2023-11-19T08:20:15;10.13;;;2.20;;
50337;SDS011;46221;51.178;5.900;2023-11-19T08:22:41;8.90;;;2.30;;
50337;SDS011;46221;51.178;5.900;2023-11-19T08:25:08;9.82;;;2.58;;
50337;SDS011;46221;51.178;5.900;2023-11-19T08:27:34;9.68;;;2.40;;
50337;SDS011;46221;51.178;5.900;2023-11-19T08:30:01;9.65;;;2.88;;
50337;SDS011;46221;51.178;5.900;2023-11-19T08:32:27;10.02;;;2.83;;
50337;SDS011;46221;51.178;5.900;2023-11-19T08:34:54;10.63;;;2.58;;
50337;SDS011;46221;51.178;5.900;2023-11-19T08:37:20;8.45;;;2.75;;
50337;SDS011;46221;51.178;5.900;2023-11-19T08:39:52;11.15;;;2.78;;
50337;SDS011;46221;51.178;5.900;2023-11-19T08:42:18;10.38;;;2.78;;
50337;SDS011;46221;51.178;5.900;2023-11-19T08:44:48;11.13;;;2.53;;
50337;SDS011;46221;51.178;5.900;2023-11-19T08:47:16;9.15;;;2.80;;
50337;SDS011;46221;51.178;5.900;2023-11-19T08:49:46;9.38;;;2.65;;
50337;SDS011;46221;51.178;5.900;2023-11-19T08:52:29;11.65;;;2.85;;
50337;SDS011;46221;51.178;5.900;2023-11-19T08:55:00;9.57;;;2.55;;
50337;SDS011;46221;51.178;5.900;2023-11-19T08:57:26;10.95;;;2.85;;
50337;SDS011;46221;51.178;5.900;2023-11-19T08:59:52;7.90;;;2.17;;
50337;SDS011;46221;51.178;5.900;2023-11-19T09:02:19;9.07;;;2.35;;
50337;SDS011;46221;51.178;5.900;2023-11-19T09:04:45;10.48;;;3.05;;
50337;SDS011;46221;51.178;5.900;2023-11-19T09:07:12;6.95;;;2.17;;
50337;SDS011;46221;51.178;5.900;2023-11-19T09:09:38;10.40;;;2.70;;
50337;SDS011;46221;51.178;5.900;2023-11-19T09:12:05;9.55;;;3.13;;
50337;SDS011;46221;51.178;5.900;2023-11-19T09:14:31;8.45;;;2.30;;
50337;SDS011;46221;51.178;5.900;2023-11-19T09:16:58;13.60;;;3.25;;
50337;SDS011;46221;51.178;5.900;2023-11-19T09:19:24;9.82;;;3.13;;
50337;SDS011;46221;51.178;5.900;2023-11-19T09:21:52;10.18;;;2.45;;
50337;SDS011;46221;51.178;5.900;2023-11-19T09:24:19;10.63;;;2.55;;
50337;SDS011;46221;51.178;5.900;2023-11-19T09:26:45;9.73;;;2.80;;
50337;SDS011;46221;51.178;5.900;2023-11-19T09:29:11;13.52;;;2.85;;
50337;SDS011;46221;51.178;5.900;2023-11-19T09:31:40;8.32;;;3.00;;
50337;SDS011;46221;51.178;5.900;2023-11-19T09:34:07;9.32;;;2.22;;
50337;SDS011;46221;51.178;5.900;2023-11-19T09:36:34;10.98;;;2.50;;
50337;SDS011;46221;51.178;5.900;2023-11-19T09:39:00;9.82;;;2.83;;
50337;SDS011;46221;51.178;5.900;2023-11-19T09:41:28;11.73;;;2.67;;
50337;SDS011;46221;51.178;5.900;2023-11-19T09:43:55;7.55;;;2.42;;
50337;SDS011;46221;51.178;5.900;2023-11-19T09:46:22;9.10;;;2.88;;
50337;SDS011;46221;51.178;5.900;2023-11-19T09:48:51;11.35;;;2.20;;
50337;SDS011;46221;51.178;5.900;2023-11-19T09:51:20;9.35;;;2.45;;
50337;SDS011;46221;51.178;5.900;2023-11-19T09:53:48;9.27;;;2.35;;
50337;SDS011;46221;51.178;5.900;2023-11-19T09:56:15;10.98;;;2.97;;
50337;SDS011;46221;51.178;5.900;2023-11-19T09:58:43;12.13;;;2.95;;
50337;SDS011;46221;51.178;5.900;2023-11-19T10:01:09;9.50;;;2.53;;
50337;SDS011;46221;51.178;5.900;2023-11-19T10:03:41;12.63;;;3.20;;
50337;SDS011;46221;51.178;5.900;2023-11-19T10:06:10;13.35;;;3.60;;
50337;SDS011;46221;51.178;5.900;2023-11-19T10:08:37;11.43;;;3.30;;
50337;SDS011;46221;51.178;5.900;2023-11-19T10:11:08;11.77;;;2.67;;
50337;SDS011;46221;51.178;5.900;2023-11-19T10:13:37;15.60;;;3.35;;
50337;SDS011;46221;51.178;5.900;2023-11-19T10:16:07;13.55;;;2.55;;
50337;SDS011;46221;51.178;5.900;2023-11-19T10:18:34;8.98;;;2.47;;
50337;SDS011;46221;51.178;5.900;2023-11-19T10:21:06;10.43;;;2.92;;
50337;SDS011;46221;51.178;5.900;2023-11-19T10:23:51;9.35;;;2.55;;
50337;SDS011;46221;51.178;5.900;2023-11-19T10:26:18;10.63;;;2.65;;
50337;SDS011;46221;51.178;5.900;2023-11-19T10:28:45;15.43;;;4.10;;
50337;SDS011;46221;51.178;5.900;2023-11-19T10:31:13;8.63;;;2.53;;
50337;SDS011;46221;51.178;5.900;2023-11-19T10:33:39;10.98;;;2.85;;
50337;SDS011;46221;51.178;5.900;2023-11-19T10:36:06;9.18;;;2.40;;
50337;SDS011;46221;51.178;5.900;2023-11-19T10:38:33;8.57;;;2.20;;
50337;SDS011;46221;51.178;5.900;2023-11-19T10:40:59;10.18;;;2.50;;
50337;SDS011;46221;51.178;5.900;2023-11-19T10:43:26;10.40;;;2.50;;
50337;SDS011;46221;51.178;5.900;2023-11-19T10:45:54;9.55;;;2.42;;
50337;SDS011;46221;51.178;5.900;2023-11-19T10:48:20;10.88;;;2.88;;
50337;SDS011;46221;51.178;5.900;2023-11-19T10:50:53;11.77;;;2.80;;
50337;SDS011;46221;51.178;5.900;2023-11-19T10:53:23;14.80;;;3.90;;
50337;SDS011;46221;51.178;5.900;2023-11-19T10:55:52;11.30;;;2.83;;
50337;SDS011;46221;51.178;5.900;2023-11-19T10:58:20;7.15;;;2.20;;
50337;SDS011;46221;51.178;5.900;2023-11-19T11:00:48;15.05;;;2.78;;
50337;SDS011;46221;51.178;5.900;2023-11-19T11:03:17;10.60;;;2.80;;
50337;SDS011;46221;51.178;5.900;2023-11-19T11:05:46;12.35;;;2.47;;
50337;SDS011;46221;51.178;5.900;2023-11-19T11:08:13;8.75;;;2.53;;
50337;SDS011;46221;51.178;5.900;2023-11-19T11:10:42;10.13;;;2.85;;
50337;SDS011;46221;51.178;5.900;2023-11-19T11:13:23;8.40;;;2.50;;
50337;SDS011;46221;51.178;5.900;2023-11-19T11:15:50;6.75;;;2.13;;
50337;SDS011;46221;51.178;5.900;2023-11-19T11:18:17;10.07;;;2.97;;
50337;SDS011;46221;51.178;5.900;2023-11-19T11:20:44;12.77;;;3.22;;
50337;SDS011;46221;51.178;5.900;2023-11-19T11:23:19;11.80;;;3.28;;
50337;SDS011;46221;51.178;5.900;2023-11-19T11:25:56;8.30;;;2.45;;
50337;SDS011;46221;51.178;5.900;2023-11-19T11:28:26;10.43;;;3.13;;
50337;SDS011;46221;51.178;5.900;2023-11-19T11:31:06;8.48;;;2.80;;
50337;SDS011;46221;51.178;5.900;2023-11-19T11:33:48;10.15;;;2.53;;
50337;SDS011;46221;51.178;5.900;2023-11-19T11:36:25;9.80;;;2.30;;
50337;SDS011;46221;51.178;5.900;2023-11-19T11:38:52;7.47;;;2.60;;
50337;SDS011;46221;51.178;5.900;2023-11-19T11:41:20;9.90;;;2.55;;
50337;SDS011;46221;51.178;5.900;2023-11-19T11:43:47;9.93;;;2.20;;
50337;SDS011;46221;51.178;5.900;2023-11-19T11:48:59;7.57;;;2.55;;
50337;SDS011;46221;51.178;5.900;2023-11-19T11:57:03;10.07;;;2.60;;
50337;SDS011;46221;51.178;5.900;2023-11-19T11:59:37;12.77;;;3.08;;
50337;SDS011;46221;51.178;5.900;2023-11-19T12:02:04;8.73;;;2.30;;
50337;SDS011;46221;51.178;5.900;2023-11-19T12:04:30;9.70;;;2.38;;
50337;SDS011;46221;51.178;5.900;2023-11-19T12:07:07;9.52;;;2.53;;
50337;SDS011;46221;51.178;5.900;2023-11-19T12:09:34;9.45;;;2.20;;
50337;SDS011;46221;51.178;5.900;2023-11-19T12:12:07;11.00;;;2.70;;
50337;SDS011;46221;51.178;5.900;2023-11-19T12:14:59;12.18;;;2.63;;
50337;SDS011;46221;51.178;5.900;2023-11-19T12:20:05;10.70;;;2.40;;
50337;SDS011;46221;51.178;5.900;2023-11-19T12:22:37;8.43;;;2.30;;
50337;SDS011;46221;51.178;5.900;2023-11-19T12:25:03;8.18;;;2.15;;
50337;SDS011;46221;51.178;5.900;2023-11-19T12:27:31;10.93;;;2.20;;
50337;SDS011;46221;51.178;5.900;2023-11-19T12:29:57;9.68;;;2.33;;
50337;SDS011;46221;51.178;5.900;2023-11-19T12:32:24;7.13;;;2.30;;
50337;SDS011;46221;51.178;5.900;2023-11-19T12:34:51;8.95;;;2.60;;
50337;SDS011;46221;51.178;5.900;2023-11-19T12:37:17;11.77;;;2.67;;
50337;SDS011;46221;51.178;5.900;2023-11-19T12:39:44;10.18;;;2.30;;
50337;SDS011;46221;51.178;5.900;2023-11-19T12:42:10;11.88;;;2.30;;
50337;SDS011;46221;51.178;5.900;2023-11-19T12:44:38;10.32;;;2.40;;
50337;SDS011;46221;51.178;5.900;2023-11-19T12:47:06;10.80;;;2.47;;
50337;SDS011;46221;51.178;5.900;2023-11-19T12:49:33;9.50;;;2.10;;
50337;SDS011;46221;51.178;5.900;2023-11-19T12:52:00;8.60;;;2.55;;
50337;SDS011;46221;51.178;5.900;2023-11-19T12:54:33;7.97;;;2.63;;
50337;SDS011;46221;51.178;5.900;2023-11-19T12:57:00;7.05;;;2.60;;
50337;SDS011;46221;51.178;5.900;2023-11-19T12:59:26;7.88;;;1.85;;
50337;SDS011;46221;51.178;5.900;2023-11-19T13:02:00;9.85;;;2.50;;
50337;SDS011;46221;51.178;5.900;2023-11-19T13:04:29;11.43;;;2.70;;
50337;SDS011;46221;51.178;5.900;2023-11-19T13:06:59;8.23;;;1.90;;
50337;SDS011;46221;51.178;5.900;2023-11-19T13:09:28;8.50;;;2.28;;
50337;SDS011;46221;51.178;5.900;2023-11-19T13:11:55;8.05;;;1.95;;
50337;SDS011;46221;51.178;5.900;2023-11-19T13:14:22;7.70;;;1.70;;
50337;SDS011;46221;51.178;5.900;2023-11-19T13:16:49;10.75;;;2.40;;
50337;SDS011;46221;51.178;5.900;2023-11-19T13:19:15;8.20;;;2.17;;
50337;SDS011;46221;51.178;5.900;2023-11-19T13:21:45;7.28;;;2.00;;
50337;SDS011;46221;51.178;5.900;2023-11-19T13:24:15;10.55;;;2.35;;
50337;SDS011;46221;51.178;5.900;2023-11-19T13:26:41;10.02;;;2.55;;
50337;SDS011;46221;51.178;5.900;2023-11-19T13:29:08;8.07;;;2.20;;
50337;SDS011;46221;51.178;5.900;2023-11-19T13:31:36;9.23;;;2.08;;
50337;SDS011;46221;51.178;5.900;2023-11-19T13:34:03;9.50;;;2.10;;
50337;SDS011;46221;51.178;5.900;2023-11-19T13:36:29;8.27;;;2.15;;
50337;SDS011;46221;51.178;5.900;2023-11-19T13:38:56;7.80;;;2.38;;
50337;SDS011;46221;51.178;5.900;2023-11-19T13:41:26;9.18;;;2.00;;
50337;SDS011;46221;51.178;5.900;2023-11-19T13:43:52;6.90;;;2.08;;
50337;SDS011;46221;51.178;5.900;2023-11-19T13:46:19;10.77;;;2.50;;
50337;SDS011;46221;51.178;5.900;2023-11-19T13:48:46;5.80;;;1.70;;
50337;SDS011;46221;51.178;5.900;2023-11-19T13:51:13;8.05;;;2.17;;
50337;SDS011;46221;51.178;5.900;2023-11-19T13:53:39;5.63;;;2.17;;
50337;SDS011;46221;51.178;5.900;2023-11-19T13:56:08;12.32;;;2.53;;
50337;SDS011;46221;51.178;5.900;2023-11-19T13:58:35;7.47;;;2.10;;
50337;SDS011;46221;51.178;5.900;2023-11-19T14:01:01;5.50;;;1.98;;
50337;SDS011;46221;51.178;5.900;2023-11-19T14:03:28;6.43;;;1.75;;
50337;SDS011;46221;51.178;5.900;2023-11-19T14:05:55;7.82;;;2.00;;
50337;SDS011;46221;51.178;5.900;2023-11-19T14:08:21;8.77;;;1.90;;
50337;SDS011;46221;51.178;5.900;2023-11-19T14:10:51;8.18;;;2.17;;
50337;SDS011;46221;51.178;5.900;2023-11-19T14:13:18;7.88;;;1.80;;
50337;SDS011;46221;51.178;5.900;2023-11-19T14:15:45;9.40;;;2.42;;
50337;SDS011;46221;51.178;5.900;2023-11-19T14:18:15;7.65;;;2.10;;
50337;SDS011;46221;51.178;5.900;2023-11-19T14:20:44;8.50;;;1.67;;
50337;SDS011;46221;51.178;5.900;2023-11-19T14:23:11;8.32;;;2.08;;
50337;SDS011;46221;51.178;5.900;2023-11-19T14:25:37;6.55;;;1.95;;
50337;SDS011;46221;51.178;5.900;2023-11-19T14:28:03;6.45;;;1.95;;
50337;SDS011;46221;51.178;5.900;2023-11-19T14:30:32;6.72;;;2.00;;
50337;SDS011;46221;51.178;5.900;2023-11-19T14:32:58;5.32;;;1.60;;
50337;SDS011;46221;51.178;5.900;2023-11-19T14:35:25;8.73;;;1.92;;
50337;SDS011;46221;51.178;5.900;2023-11-19T14:37:51;10.32;;;2.30;;
50337;SDS011;46221;51.178;5.900;2023-11-19T14:40:18;7.15;;;1.90;;
50337;SDS011;46221;51.178;5.900;2023-11-19T14:42:44;7.60;;;1.92;;
50337;SDS011;46221;51.178;5.900;2023-11-19T14:45:10;8.15;;;2.05;;
50337;SDS011;46221;51.178;5.900;2023-11-19T14:47:39;8.57;;;1.92;;
50337;SDS011;46221;51.178;5.900;2023-11-19T14:50:06;7.85;;;1.77;;
50337;SDS011;46221;51.178;5.900;2023-11-19T14:52:34;7.57;;;2.22;;
50337;SDS011;46221;51.178;5.900;2023-11-19T14:55:00;8.38;;;2.28;;
50337;SDS011;46221;51.178;5.900;2023-11-19T14:57:27;6.28;;;1.50;;
50337;SDS011;46221;51.178;5.900;2023-11-19T14:59:53;6.85;;;1.80;;